Time;durP1;ratioP1;P1;durP2;ratioP2;P2;SDS_P1;SDS_P2;PMS_P1;PMS_P2;Temp;Humidity;BMP_temperature;BMP_pressure;BME280_temperature;BME280_humidity;BME280_pressure;Samples;Min_cycle;Max_cycle;Signal;HPM_P1;HPM_P2
2021/04/27 00:01:04;;;;;;;4.10;2.63;;;;;;;;;;5081353;28;20205;-70
2021/04/27 00:03:29;;;;;;;6.03;2.67;;;;;;;;;;5081331;28;20251;-69
2021/04/27 00:05:55;;;;;;;2.97;2.40;;;;;;;;;;5080709;28;20263;-70
2021/04/27 00:08:20;;;;;;;4.20;2.70;;;;;;;;;;5077917;28;20175;-70
2021/04/27 00:10:46;;;;;;;4.73;2.97;;;;;;;;;;5079647;28;20188;-69
2021/04/27 00:13:11;;;;;;;4.03;2.60;;;;;;;;;;5080198;28;20188;-70
2021/04/27 00:15:36;;;;;;;6.67;2.73;;;;;;;;;;5078567;28;20199;-69
2021/04/27 00:18:01;;;;;;;6.57;2.80;;;;;;;;;;5075545;28;20267;-70
2021/04/27 00:20:27;;;;;;;3.30;2.63;;;;;;;;;;5079166;28;20295;-70
2021/04/27 00:22:52;;;;;;;8.00;2.73;;;;;;;;;;5078576;28;20203;-70
2021/04/27 00:25:17;;;;;;;4.57;2.90;;;;;;;;;;5075068;28;20181;-70
2021/04/27 00:27:47;;;;;;;5.73;2.70;;;;;;;;;;5078268;28;20405;-70
2021/04/27 00:30:12;;;;;;;3.67;2.33;;;;;;;;;;5078445;28;20181;-71
2021/04/27 00:32:38;;;;;;;6.00;2.70;;;;;;;;;;5079081;28;20782;-70
2021/04/27 00:35:03;;;;;;;6.87;3.07;;;;;;;;;;5073750;28;20630;-70
2021/04/27 00:37:28;;;;;;;5.63;3.30;;;;;;;;;;5075572;28;20184;-70
2021/04/27 00:39:53;;;;;;;6.83;3.20;;;;;;;;;;5082843;28;20227;-70
2021/04/27 00:42:29;;;;;;;6.37;3.17;;;;;;;;;;5085674;28;20204;-70
2021/04/27 00:44:54;;;;;;;7.67;4.00;;;;;;;;;;5076142;28;20553;-71
2021/04/27 00:47:19;;;;;;;5.60;2.83;;;;;;;;;;5078634;28;20172;-70
2021/04/27 00:49:44;;;;;;;4.07;3.10;;;;;;;;;;5079798;28;20250;-70
2021/04/27 00:52:09;;;;;;;5.63;2.83;;;;;;;;;;5075239;28;20936;-70
2021/04/27 00:54:35;;;;;;;4.37;2.67;;;;;;;;;;5078173;28;20201;-69
2021/04/27 00:57:00;;;;;;;5.73;3.20;;;;;;;;;;5076213;28;20181;-70
2021/04/27 00:59:25;;;;;;;7.87;2.90;;;;;;;;;;5078187;28;20196;-69
2021/04/27 01:01:50;;;;;;;6.80;3.10;;;;;;;;;;5076376;28;20661;-69
2021/04/27 01:04:15;;;;;;;6.77;3.10;;;;;;;;;;5078067;28;20260;-69
2021/04/27 01:06:40;;;;;;;4.00;2.70;;;;;;;;;;5073728;28;20686;-70
2021/04/27 01:09:12;;;;;;;5.50;3.20;;;;;;;;;;5074779;28;20199;-69
2021/04/27 01:11:43;;;;;;;4.73;2.50;;;;;;;;;;5077817;28;20204;-70
2021/04/27 01:14:24;;;;;;;5.10;2.80;;;;;;;;;;5071963;28;20238;-71
2021/04/27 01:16:51;;;;;;;4.40;2.87;;;;;;;;;;5076501;28;20260;-70
2021/04/27 01:19:17;;;;;;;5.67;3.20;;;;;;;;;;5074848;28;20207;-69
2021/04/27 01:21:43;;;;;;;4.33;2.80;;;;;;;;;;5075669;28;20579;-69
2021/04/27 01:24:10;;;;;;;5.97;3.00;;;;;;;;;;5078631;28;21729;-70
2021/04/27 01:26:37;;;;;;;6.93;3.17;;;;;;;;;;5074802;28;20661;-69
2021/04/27 01:29:05;;;;;;;5.63;3.10;;;;;;;;;;5076693;28;20168;-70
2021/04/27 01:31:30;;;;;;;4.00;3.27;;;;;;;;;;5075919;28;20632;-69
2021/04/27 01:33:56;;;;;;;5.60;2.90;;;;;;;;;;5074250;28;20181;-70
2021/04/27 01:36:21;;;;;;;4.00;3.03;;;;;;;;;;5078119;28;20188;-70
2021/04/27 01:38:47;;;;;;;4.23;3.10;;;;;;;;;;5076869;28;20645;-71
2021/04/27 01:41:13;;;;;;;5.03;3.03;;;;;;;;;;5077313;28;20204;-71
2021/04/27 01:43:38;;;;;;;8.10;3.37;;;;;;;;;;5078912;28;20240;-71
2021/04/27 01:46:05;;;;;;;4.13;3.53;;;;;;;;;;5076097;28;20259;-70
2021/04/27 01:48:31;;;;;;;4.83;3.30;;;;;;;;;;5075441;28;20213;-70
2021/04/27 01:50:56;;;;;;;6.30;3.60;;;;;;;;;;5078161;28;20291;-71
2021/04/27 01:53:22;;;;;;;5.10;2.87;;;;;;;;;;5076043;28;20286;-70
2021/04/27 01:55:48;;;;;;;4.63;3.10;;;;;;;;;;5074069;28;20180;-70
2021/04/27 01:58:13;;;;;;;4.50;2.83;;;;;;;;;;5075777;28;20189;-70
2021/04/27 02:00:39;;;;;;;6.17;3.63;;;;;;;;;;5075441;28;20212;-70
2021/04/27 02:03:04;;;;;;;3.53;2.83;;;;;;;;;;5076202;28;20561;-71
2021/04/27 02:05:30;;;;;;;6.53;3.00;;;;;;;;;;5073742;28;20190;-70
2021/04/27 02:07:55;;;;;;;6.53;4.03;;;;;;;;;;5075153;28;20169;-69
2021/04/27 02:10:21;;;;;;;4.73;3.53;;;;;;;;;;5078529;28;20218;-70
2021/04/27 02:12:48;;;;;;;7.30;3.17;;;;;;;;;;5078035;28;20746;-70
2021/04/27 02:15:14;;;;;;;6.53;3.13;;;;;;;;;;5077038;28;20619;-70
2021/04/27 02:17:54;;;;;;;8.23;4.23;;;;;;;;;;5074653;28;20184;-70
2021/04/27 02:20:24;;;;;;;6.37;3.43;;;;;;;;;;5076657;28;20605;-70
2021/04/27 02:22:49;;;;;;;6.30;3.10;;;;;;;;;;5072835;28;20202;-71
2021/04/27 02:25:15;;;;;;;4.57;3.20;;;;;;;;;;5077909;28;20181;-71
2021/04/27 02:27:41;;;;;;;6.03;3.57;;;;;;;;;;5074052;28;20173;-70
2021/04/27 02:30:07;;;;;;;8.73;3.27;;;;;;;;;;5079988;28;20274;-70
2021/04/27 02:32:32;;;;;;;5.23;3.23;;;;;;;;;;5077011;28;20243;-68
2021/04/27 02:34:58;;;;;;;9.13;3.53;;;;;;;;;;5076254;28;20211;-69
2021/04/27 02:37:23;;;;;;;5.30;3.37;;;;;;;;;;5077192;28;20656;-68
2021/04/27 02:39:49;;;;;;;5.83;3.07;;;;;;;;;;5075091;28;20304;-70
2021/04/27 02:42:14;;;;;;;5.57;3.20;;;;;;;;;;5074512;28;20281;-71
2021/04/27 02:44:39;;;;;;;6.53;3.57;;;;;;;;;;5076701;28;20214;-70
2021/04/27 02:47:04;;;;;;;6.77;3.67;;;;;;;;;;5074938;28;20184;-70
2021/04/27 02:49:30;;;;;;;6.00;3.33;;;;;;;;;;5080807;28;20187;-70
2021/04/27 02:51:55;;;;;;;6.57;3.13;;;;;;;;;;5078499;28;20266;-70
2021/04/27 02:54:20;;;;;;;3.93;3.30;;;;;;;;;;5080286;28;20188;-70
2021/04/27 02:56:45;;;;;;;6.20;3.43;;;;;;;;;;5080985;28;20669;-68
2021/04/27 02:59:11;;;;;;;4.97;3.30;;;;;;;;;;5078665;28;20261;-69
2021/04/27 03:01:36;;;;;;;6.53;3.70;;;;;;;;;;5077126;28;20196;-70
2021/04/27 03:04:02;;;;;;;5.87;3.13;;;;;;;;;;5079437;28;20177;-70
2021/04/27 03:06:28;;;;;;;5.90;3.73;;;;;;;;;;5078538;28;20180;-70
2021/04/27 03:08:53;;;;;;;5.43;3.33;;;;;;;;;;5091221;28;20680;-70
2021/04/27 03:11:18;;;;;;;7.10;5.63;;;;;;;;;;5091368;28;20279;-70
2021/04/27 03:13:43;;;;;;;4.23;3.47;;;;;;;;;;5086053;28;20554;-70
2021/04/27 03:16:08;;;;;;;7.33;3.50;;;;;;;;;;5081196;28;20195;-71
2021/04/27 03:18:34;;;;;;;3.43;3.13;;;;;;;;;;5079100;28;20228;-70
2021/04/27 03:20:59;;;;;;;7.43;3.77;;;;;;;;;;5080172;28;20314;-70
2021/04/27 03:23:24;;;;;;;5.63;3.83;;;;;;;;;;5078966;28;21108;-69
2021/04/27 03:25:50;;;;;;;8.67;3.43;;;;;;;;;;5081152;28;20195;-69
2021/04/27 03:28:15;;;;;;;7.00;3.63;;;;;;;;;;5078795;28;20241;-70
2021/04/27 03:30:40;;;;;;;6.43;3.77;;;;;;;;;;5079618;28;20603;-69
2021/04/27 03:33:05;;;;;;;4.97;3.27;;;;;;;;;;5079638;28;20229;-69
2021/04/27 03:35:31;;;;;;;6.57;3.53;;;;;;;;;;5075412;28;20188;-70
2021/04/27 03:37:56;;;;;;;4.53;3.17;;;;;;;;;;5083590;28;20180;-71
2021/04/27 03:40:22;;;;;;;7.60;3.67;;;;;;;;;;5079346;28;20200;-70
2021/04/27 03:42:47;;;;;;;5.37;3.23;;;;;;;;;;5080500;28;20189;-70
2021/04/27 03:45:14;;;;;;;5.40;3.97;;;;;;;;;;5077464;28;21008;-70
2021/04/27 03:47:40;;;;;;;4.67;3.60;;;;;;;;;;5078984;28;20191;-70
2021/04/27 03:50:06;;;;;;;5.43;3.43;;;;;;;;;;5078358;28;20184;-69
2021/04/27 03:52:31;;;;;;;4.17;3.73;;;;;;;;;;5078574;28;20413;-71
2021/04/27 03:54:56;;;;;;;6.93;3.47;;;;;;;;;;5079911;28;20181;-73
2021/04/27 03:57:21;;;;;;;9.57;4.90;;;;;;;;;;5078582;28;20176;-71
2021/04/27 03:59:47;;;;;;;12.60;4.50;;;;;;;;;;5092117;28;20738;-72
2021/04/27 04:02:12;;;;;;;6.97;3.93;;;;;;;;;;5084456;28;20193;-69
2021/04/27 04:04:37;;;;;;;7.73;4.03;;;;;;;;;;5073499;28;21700;-71
2021/04/27 04:07:02;;;;;;;6.70;3.50;;;;;;;;;;5077918;28;20654;-71
2021/04/27 04:09:27;;;;;;;8.87;4.53;;;;;;;;;;5079682;28;22073;-71
2021/04/27 04:11:53;;;;;;;3.70;3.40;;;;;;;;;;5080257;28;20212;-69
2021/04/27 04:14:18;;;;;;;6.13;3.83;;;;;;;;;;5076352;28;20182;-71
2021/04/27 04:16:43;;;;;;;5.83;4.00;;;;;;;;;;5078697;28;20175;-71
2021/04/27 04:19:08;;;;;;;5.77;3.67;;;;;;;;;;5078861;28;20223;-71
2021/04/27 04:21:33;;;;;;;6.80;3.97;;;;;;;;;;5077570;28;22073;-70
2021/04/27 04:23:59;;;;;;;7.13;3.93;;;;;;;;;;5076188;28;21717;-71
2021/04/27 04:26:24;;;;;;;6.30;4.33;;;;;;;;;;5078656;28;20196;-70
2021/04/27 04:28:49;;;;;;;8.70;5.17;;;;;;;;;;5078480;28;20176;-71
2021/04/27 04:31:15;;;;;;;5.10;3.73;;;;;;;;;;5077252;28;20211;-70
2021/04/27 04:33:40;;;;;;;6.87;3.57;;;;;;;;;;5072733;28;20659;-71
2021/04/27 04:36:05;;;;;;;4.67;4.10;;;;;;;;;;5076101;28;20196;-70
2021/04/27 04:38:30;;;;;;;7.03;4.67;;;;;;;;;;5076090;28;20619;-71
2021/04/27 04:40:56;;;;;;;6.63;4.23;;;;;;;;;;5073382;28;20258;-71
2021/04/27 04:43:21;;;;;;;6.50;4.43;;;;;;;;;;5075022;28;20646;-70
2021/04/27 04:45:46;;;;;;;6.17;4.17;;;;;;;;;;5076023;28;20181;-68
2021/04/27 04:48:12;;;;;;;6.67;3.90;;;;;;;;;;5079471;28;20662;-70
2021/04/27 04:50:37;;;;;;;8.20;4.47;;;;;;;;;;5075133;28;20933;-71
2021/04/27 04:53:03;;;;;;;7.43;4.17;;;;;;;;;;5074315;28;20199;-70
2021/04/27 04:55:29;;;;;;;7.00;4.60;;;;;;;;;;5075719;28;20219;-70
2021/04/27 04:57:54;;;;;;;6.37;4.43;;;;;;;;;;5076130;28;20200;-71
2021/04/27 05:00:20;;;;;;;7.13;4.50;;;;;;;;;;5075172;28;20337;-72
2021/04/27 05:02:45;;;;;;;5.97;4.33;;;;;;;;;;5078952;28;20282;-71
2021/04/27 05:05:11;;;;;;;6.50;3.77;;;;;;;;;;5077885;28;20263;-69
2021/04/27 05:07:57;;;;;;;5.00;4.30;;;;;;;;;;5076557;28;20767;-71
2021/04/27 05:10:23;;;;;;;7.43;5.47;;;;;;;;;;5076103;28;20184;-70
2021/04/27 05:12:48;;;;;;;6.90;5.03;;;;;;;;;;5076176;28;20308;-70
2021/04/27 05:15:13;;;;;;;8.07;4.77;;;;;;;;;;5075380;28;20589;-71
2021/04/27 05:17:39;;;;;;;7.37;4.70;;;;;;;;;;5075947;28;20188;-71
2021/04/27 05:20:05;;;;;;;8.60;4.83;;;;;;;;;;5075799;28;20662;-71
2021/04/27 05:22:30;;;;;;;5.30;4.00;;;;;;;;;;5077065;28;20188;-71
2021/04/27 05:24:55;;;;;;;7.50;5.10;;;;;;;;;;5075698;28;20404;-70
2021/04/27 05:27:21;;;;;;;11.67;4.70;;;;;;;;;;5075841;28;20262;-71
2021/04/27 05:29:46;;;;;;;6.53;4.37;;;;;;;;;;5075620;28;20191;-69
2021/04/27 05:32:11;;;;;;;7.43;5.00;;;;;;;;;;5074450;28;20409;-70
2021/04/27 05:34:37;;;;;;;5.60;4.10;;;;;;;;;;5075830;28;20225;-70
2021/04/27 05:37:02;;;;;;;10.87;5.00;;;;;;;;;;5076163;28;20188;-71
2021/04/27 05:39:28;;;;;;;5.33;4.50;;;;;;;;;;5074709;28;20242;-71
2021/04/27 05:41:53;;;;;;;6.73;4.07;;;;;;;;;;5075501;28;20303;-70
2021/04/27 05:44:18;;;;;;;7.13;4.67;;;;;;;;;;5076458;28;20669;-71
2021/04/27 05:46:43;;;;;;;6.23;4.67;;;;;;;;;;5075357;28;20175;-68
2021/04/27 05:49:09;;;;;;;7.33;4.63;;;;;;;;;;5074051;28;20226;-70
2021/04/27 05:51:34;;;;;;;8.17;4.83;;;;;;;;;;5072707;28;20690;-69
2021/04/27 05:53:59;;;;;;;6.00;4.63;;;;;;;;;;5074706;28;20537;-69
2021/04/27 05:56:25;;;;;;;5.50;4.37;;;;;;;;;;5074329;28;20177;-71
2021/04/27 05:58:50;;;;;;;8.97;4.40;;;;;;;;;;5075269;28;20172;-71
2021/04/27 06:01:15;;;;;;;7.73;4.37;;;;;;;;;;5071481;28;20234;-69
2021/04/27 06:03:40;;;;;;;7.03;4.80;;;;;;;;;;5075134;28;20183;-69
2021/04/27 06:06:05;;;;;;;6.23;4.97;;;;;;;;;;5072697;28;20177;-68
2021/04/27 06:08:33;;;;;;;15.07;5.47;;;;;;;;;;5074751;28;20177;-69
2021/04/27 06:10:58;;;;;;;6.37;5.00;;;;;;;;;;5075406;28;20211;-69
2021/04/27 06:13:23;;;;;;;6.63;4.80;;;;;;;;;;5070977;28;20558;-68
2021/04/27 06:15:48;;;;;;;8.73;4.73;;;;;;;;;;5071679;28;20765;-69
2021/04/27 06:18:13;;;;;;;8.13;4.90;;;;;;;;;;5074930;28;20219;-68
2021/04/27 06:20:39;;;;;;;6.17;4.37;;;;;;;;;;5075227;28;20291;-68
2021/04/27 06:23:04;;;;;;;7.60;5.00;;;;;;;;;;5075013;28;20199;-68
2021/04/27 06:25:29;;;;;;;5.60;4.50;;;;;;;;;;5082466;28;20681;-67
2021/04/27 06:27:54;;;;;;;7.30;4.97;;;;;;;;;;5082046;28;20181;-70
2021/04/27 06:30:22;;;;;;;5.63;4.37;;;;;;;;;;5079191;28;20192;-70
2021/04/27 06:32:48;;;;;;;7.60;4.93;;;;;;;;;;5078511;28;20215;-69
2021/04/27 06:35:13;;;;;;;9.67;5.07;;;;;;;;;;5077738;28;20195;-69
2021/04/27 06:37:38;;;;;;;6.33;4.83;;;;;;;;;;5076784;28;20284;-70
2021/04/27 06:40:04;;;;;;;4.87;4.40;;;;;;;;;;5078118;28;20204;-70
2021/04/27 06:42:29;;;;;;;7.30;4.33;;;;;;;;;;5079375;28;20200;-70
2021/04/27 06:44:54;;;;;;;10.43;5.33;;;;;;;;;;5080052;28;20168;-71
2021/04/27 06:47:19;;;;;;;6.73;4.37;;;;;;;;;;5079876;28;20275;-68
2021/04/27 06:49:45;;;;;;;5.87;5.07;;;;;;;;;;5077163;28;20497;-71
2021/04/27 06:52:10;;;;;;;8.27;4.73;;;;;;;;;;5077022;28;20290;-70
2021/04/27 06:54:35;;;;;;;8.67;4.73;;;;;;;;;;5074060;28;20185;-71
2021/04/27 06:57:01;;;;;;;6.53;4.67;;;;;;;;;;5078654;28;20203;-70
2021/04/27 06:59:31;;;;;;;6.77;4.67;;;;;;;;;;5079041;28;20282;-69
2021/04/27 07:01:59;;;;;;;7.50;4.87;;;;;;;;;;5075967;28;20200;-68
2021/04/27 07:04:25;;;;;;;5.63;4.63;;;;;;;;;;5077986;28;20213;-70
2021/04/27 07:06:50;;;;;;;6.83;5.10;;;;;;;;;;5080087;28;20208;-69
2021/04/27 07:09:15;;;;;;;8.37;4.60;;;;;;;;;;5076549;28;22217;-70
2021/04/27 07:11:40;;;;;;;6.37;5.30;;;;;;;;;;5079377;28;20192;-68
2021/04/27 07:14:06;;;;;;;5.50;4.63;;;;;;;;;;5081718;28;20176;-68
2021/04/27 07:16:31;;;;;;;6.00;5.37;;;;;;;;;;5078728;28;20188;-68
2021/04/27 07:18:56;;;;;;;8.33;4.40;;;;;;;;;;5079735;28;20172;-68
2021/04/27 07:21:22;;;;;;;6.77;4.47;;;;;;;;;;5080496;28;20228;-68
2021/04/27 07:23:48;;;;;;;6.03;4.43;;;;;;;;;;5080958;28;20729;-69
2021/04/27 07:26:13;;;;;;;6.23;4.63;;;;;;;;;;5079540;28;20264;-70
2021/04/27 07:28:38;;;;;;;8.27;4.80;;;;;;;;;;5078078;28;20246;-70
2021/04/27 07:31:03;;;;;;;7.77;5.30;;;;;;;;;;5075314;28;20302;-68
2021/04/27 07:33:28;;;;;;;7.40;5.27;;;;;;;;;;5076217;28;20176;-70
2021/04/27 07:35:54;;;;;;;8.37;5.73;;;;;;;;;;5074908;28;20209;-69
2021/04/27 07:38:19;;;;;;;8.40;5.60;;;;;;;;;;5078179;28;20180;-69
2021/04/27 07:40:44;;;;;;;5.40;4.77;;;;;;;;;;5079492;28;20207;-69
2021/04/27 07:43:09;;;;;;;5.87;5.13;;;;;;;;;;5074815;28;20177;-70
2021/04/27 07:45:35;;;;;;;6.63;4.93;;;;;;;;;;5081146;28;20625;-69
2021/04/27 07:48:01;;;;;;;5.63;5.03;;;;;;;;;;5079420;28;20177;-69
2021/04/27 07:50:26;;;;;;;10.50;5.60;;;;;;;;;;5076149;28;20187;-69
2021/04/27 07:52:52;;;;;;;6.47;4.90;;;;;;;;;;5079340;28;20592;-70
2021/04/27 07:55:17;;;;;;;10.03;4.97;;;;;;;;;;5080636;28;20224;-69
2021/04/27 07:57:43;;;;;;;6.40;4.60;;;;;;;;;;5080202;28;20186;-69
2021/04/27 08:00:09;;;;;;;6.10;4.63;;;;;;;;;;5080602;28;20204;-70
2021/04/27 08:02:34;;;;;;;6.40;5.20;;;;;;;;;;5080778;28;20673;-71
2021/04/27 08:05:00;;;;;;;6.00;4.93;;;;;;;;;;5080319;28;20184;-69
2021/04/27 08:07:25;;;;;;;7.00;4.90;;;;;;;;;;5078299;28;20531;-71
2021/04/27 08:09:50;;;;;;;5.70;5.10;;;;;;;;;;5080171;28;20184;-69
2021/04/27 08:12:16;;;;;;;8.47;4.90;;;;;;;;;;5079124;28;20653;-70
2021/04/27 08:14:41;;;;;;;5.73;5.03;;;;;;;;;;5077294;28;20177;-69
2021/04/27 08:17:07;;;;;;;5.87;5.37;;;;;;;;;;5079952;28;20203;-69
2021/04/27 08:19:32;;;;;;;8.50;5.53;;;;;;;;;;5074109;28;20265;-69
2021/04/27 08:21:57;;;;;;;7.77;5.20;;;;;;;;;;5077782;28;20204;-69
2021/04/27 08:24:22;;;;;;;5.40;4.87;;;;;;;;;;5080408;28;20619;-70
2021/04/27 08:26:48;;;;;;;6.63;5.40;;;;;;;;;;5075901;28;20187;-68
2021/04/27 08:29:13;;;;;;;6.67;4.90;;;;;;;;;;5078046;28;20172;-71
2021/04/27 08:31:38;;;;;;;5.47;4.90;;;;;;;;;;5072136;28;20192;-70
2021/04/27 08:34:04;;;;;;;7.00;4.93;;;;;;;;;;5076255;28;20168;-70
2021/04/27 08:36:29;;;;;;;5.70;4.87;;;;;;;;;;5077112;28;20176;-70
2021/04/27 08:38:54;;;;;;;6.63;5.57;;;;;;;;;;5076738;28;20188;-70
2021/04/27 08:41:23;;;;;;;7.20;4.90;;;;;;;;;;5078598;28;20216;-71
2021/04/27 08:43:49;;;;;;;6.90;5.37;;;;;;;;;;5078665;28;20176;-70
2021/04/27 08:46:14;;;;;;;6.27;5.40;;;;;;;;;;5076463;28;20177;-70
2021/04/27 08:48:41;;;;;;;6.80;5.17;;;;;;;;;;5078855;28;20258;-70
2021/04/27 08:51:06;;;;;;;5.40;4.90;;;;;;;;;;5078066;28;20761;-70
2021/04/27 08:53:31;;;;;;;7.22;4.85;;;;;;;;;;5078028;28;20180;-69
2021/04/27 08:55:58;;;;;;;7.00;5.25;;;;;;;;;;5076524;28;20220;-70
2021/04/27 08:58:23;;;;;;;6.18;4.72;;;;;;;;;;5073384;28;20410;-70
2021/04/27 09:00:49;;;;;;;11.40;5.30;;;;;;;;;;5076034;28;20212;-69
2021/04/27 09:03:14;;;;;;;6.97;5.00;;;;;;;;;;5078143;28;20185;-70
2021/04/27 09:05:40;;;;;;;4.72;4.22;;;;;;;;;;5072879;28;20185;-69
2021/04/27 09:08:05;;;;;;;6.85;4.82;;;;;;;;;;5075772;28;20173;-70
2021/04/27 09:10:32;;;;;;;5.13;4.63;;;;;;;;;;5075212;28;20215;-69
2021/04/27 09:13:07;;;;;;;4.68;4.25;;;;;;;;;;5077175;28;20862;-69
2021/04/27 09:15:35;;;;;;;5.72;4.57;;;;;;;;;;5072966;28;20639;-70
2021/04/27 09:18:20;;;;;;;5.55;4.50;;;;;;;;;;5073042;28;20176;-70
2021/04/27 09:20:53;;;;;;;8.13;4.55;;;;;;;;;;5075171;28;20294;-69
2021/04/27 09:23:19;;;;;;;5.95;3.97;;;;;;;;;;5075651;28;20180;-69
2021/04/27 09:26:07;;;;;;;5.20;4.20;;;;;;;;;;5077368;28;20411;-69
2021/04/27 09:28:36;;;;;;;7.43;4.47;;;;;;;;;;5073722;28;20212;-69
2021/04/27 09:31:19;;;;;;;8.00;4.63;;;;;;;;;;5077739;28;20209;-68
2021/04/27 09:33:45;;;;;;;8.52;5.30;;;;;;;;;;5077519;28;21430;-69
2021/04/27 09:36:16;;;;;;;6.25;4.60;;;;;;;;;;5077510;28;20196;-69
2021/04/27 09:38:41;;;;;;;6.15;4.63;;;;;;;;;;5075871;28;20263;-69
2021/04/27 09:41:07;;;;;;;7.10;4.60;;;;;;;;;;5077438;28;20291;-69
2021/04/27 09:43:38;;;;;;;5.82;4.32;;;;;;;;;;5077856;28;20176;-69
2021/04/27 09:46:05;;;;;;;5.25;4.75;;;;;;;;;;5075565;28;20203;-69
2021/04/27 09:48:35;;;;;;;6.03;4.63;;;;;;;;;;5077568;28;20179;-67
2021/04/27 09:51:20;;;;;;;6.25;4.15;;;;;;;;;;5076908;28;20232;-69
2021/04/27 09:53:56;;;;;;;5.15;4.18;;;;;;;;;;5073979;28;20184;-69
2021/04/27 09:56:41;;;;;;;5.20;4.10;;;;;;;;;;5074264;28;20180;-69
2021/04/27 09:59:06;;;;;;;6.72;4.40;;;;;;;;;;5071174;28;20176;-68
2021/04/27 10:01:31;;;;;;;5.00;4.35;;;;;;;;;;5080096;28;20219;-67
2021/04/27 10:03:57;;;;;;;5.65;5.03;;;;;;;;;;5080806;28;20185;-69
2021/04/27 10:06:23;;;;;;;5.25;4.43;;;;;;;;;;5077128;28;20173;-70
2021/04/27 10:08:48;;;;;;;6.63;4.50;;;;;;;;;;5078348;28;20176;-69
2021/04/27 10:11:14;;;;;;;8.52;5.18;;;;;;;;;;5084089;28;20250;-68
2021/04/27 10:13:39;;;;;;;6.80;4.78;;;;;;;;;;5076218;28;20557;-69
2021/04/27 10:16:04;;;;;;;7.13;5.00;;;;;;;;;;5074926;28;20461;-68
2021/04/27 10:18:31;;;;;;;6.35;4.55;;;;;;;;;;5078888;28;20187;-69
2021/04/27 10:20:58;;;;;;;5.78;4.35;;;;;;;;;;5076755;28;20705;-69
2021/04/27 10:23:23;;;;;;;5.38;4.30;;;;;;;;;;5080875;28;20207;-69
2021/04/27 10:25:51;;;;;;;5.18;4.35;;;;;;;;;;5081402;28;20705;-71
2021/04/27 10:28:16;;;;;;;5.32;4.55;;;;;;;;;;5087735;28;20217;-70
2021/04/27 10:30:43;;;;;;;5.25;4.57;;;;;;;;;;5085592;28;20188;-70
2021/04/27 10:33:13;;;;;;;5.45;4.40;;;;;;;;;;5079698;28;20191;-70
2021/04/27 10:35:39;;;;;;;5.88;4.93;;;;;;;;;;5084239;28;20198;-69
2021/04/27 10:38:05;;;;;;;4.57;4.18;;;;;;;;;;5079075;28;20183;-70
2021/04/27 10:40:49;;;;;;;5.38;4.88;;;;;;;;;;5079526;28;20582;-70
2021/04/27 10:43:26;;;;;;;4.63;4.15;;;;;;;;;;5073826;28;20196;-69
2021/04/27 10:45:52;;;;;;;4.47;3.92;;;;;;;;;;5075242;28;20443;-72
2021/04/27 10:48:24;;;;;;;5.30;4.40;;;;;;;;;;5072908;28;20188;-69
2021/04/27 10:50:50;;;;;;;4.57;4.15;;;;;;;;;;5076680;28;20257;-68
2021/04/27 10:53:34;;;;;;;4.95;4.07;;;;;;;;;;5080259;28;20176;-71
2021/04/27 10:56:00;;;;;;;5.13;4.30;;;;;;;;;;5082489;28;20255;-69
2021/04/27 10:58:44;;;;;;;5.68;4.60;;;;;;;;;;5078252;28;20259;-69
2021/04/27 11:01:18;;;;;;;7.20;4.18;;;;;;;;;;5079003;28;20211;-70
2021/04/27 11:03:50;;;;;;;5.25;3.75;;;;;;;;;;5073542;28;20708;-69
2021/04/27 11:06:15;;;;;;;6.63;4.25;;;;;;;;;;5077874;28;20820;-69
2021/04/27 11:08:45;;;;;;;7.07;5.10;;;;;;;;;;5074182;28;20188;-70
2021/04/27 11:11:17;;;;;;;4.50;4.07;;;;;;;;;;5082158;28;20736;-73
2021/04/27 11:13:43;;;;;;;5.07;3.97;;;;;;;;;;5086108;28;20192;-70
2021/04/27 11:16:24;;;;;;;7.55;4.00;;;;;;;;;;5081212;28;20176;-71
2021/04/27 11:18:49;;;;;;;4.40;3.83;;;;;;;;;;5082884;28;20185;-70
2021/04/27 11:21:15;;;;;;;5.55;3.65;;;;;;;;;;5084078;28;20612;-69
2021/04/27 11:23:40;;;;;;;6.30;4.75;;;;;;;;;;5081590;28;20579;-69
2021/04/27 11:26:24;;;;;;;8.75;4.07;;;;;;;;;;5078084;28;20578;-72
2021/04/27 11:28:51;;;;;;;5.47;4.35;;;;;;;;;;5083362;28;20540;-70
2021/04/27 11:31:16;;;;;;;5.68;4.15;;;;;;;;;;5083498;28;20196;-70
2021/04/27 11:33:42;;;;;;;3.97;3.58;;;;;;;;;;5084072;28;20183;-69
2021/04/27 11:36:07;;;;;;;7.28;4.05;;;;;;;;;;5082814;28;20270;-70
2021/04/27 11:38:32;;;;;;;3.97;3.58;;;;;;;;;;5088246;28;20300;-69
2021/04/27 11:40:59;;;;;;;5.13;3.38;;;;;;;;;;5078077;28;20211;-70
2021/04/27 11:43:24;;;;;;;5.25;3.95;;;;;;;;;;5075532;28;20177;-71
2021/04/27 11:45:51;;;;;;;4.78;4.15;;;;;;;;;;5083627;28;20175;-72
2021/04/27 11:48:17;;;;;;;4.25;3.83;;;;;;;;;;5080067;28;20185;-70
2021/04/27 11:50:43;;;;;;;6.28;4.68;;;;;;;;;;5090276;28;20268;-68
2021/04/27 11:53:08;;;;;;;4.45;3.80;;;;;;;;;;5083750;28;20626;-68
2021/04/27 11:55:41;;;;;;;5.82;4.13;;;;;;;;;;5086002;28;20173;-69
2021/04/27 11:58:08;;;;;;;5.82;3.85;;;;;;;;;;5084002;28;20184;-70
2021/04/27 12:00:35;;;;;;;4.70;4.20;;;;;;;;;;5082827;28;20266;-70
2021/04/27 12:03:12;;;;;;;4.55;4.10;;;;;;;;;;5085216;28;20203;-68
2021/04/27 12:05:37;;;;;;;4.50;3.92;;;;;;;;;;5085845;28;20237;-69
2021/04/27 12:08:13;;;;;;;5.17;4.67;;;;;;;;;;5084512;28;20610;-70
2021/04/27 12:10:38;;;;;;;5.68;4.32;;;;;;;;;;5083948;28;20428;-72
2021/04/27 12:13:15;;;;;;;5.45;4.20;;;;;;;;;;5085453;28;20264;-70
2021/04/27 12:15:40;;;;;;;5.32;3.60;;;;;;;;;;5080237;28;20224;-69
2021/04/27 12:18:07;;;;;;;5.03;4.40;;;;;;;;;;5086628;28;20659;-69
2021/04/27 12:20:32;;;;;;;4.82;4.07;;;;;;;;;;5075971;28;20461;-68
2021/04/27 12:22:58;;;;;;;4.93;3.87;;;;;;;;;;5085254;28;20251;-68
2021/04/27 12:25:24;;;;;;;4.30;3.80;;;;;;;;;;5083414;28;20443;-69
2021/04/27 12:27:52;;;;;;;6.20;5.00;;;;;;;;;;5085823;28;20452;-69
2021/04/27 12:30:24;;;;;;;6.55;4.72;;;;;;;;;;5082946;28;20679;-69
2021/04/27 12:32:59;;;;;;;6.22;4.10;;;;;;;;;;5086261;28;20200;-68
2021/04/27 12:35:25;;;;;;;7.22;4.05;;;;;;;;;;5084984;28;20202;-70
2021/04/27 12:37:59;;;;;;;4.70;3.88;;;;;;;;;;5086782;28;20275;-70
2021/04/27 12:40:25;;;;;;;6.30;4.10;;;;;;;;;;5081296;28;20211;-69
2021/04/27 12:42:55;;;;;;;5.45;4.35;;;;;;;;;;5077537;28;20228;-69
2021/04/27 12:45:21;;;;;;;6.05;4.43;;;;;;;;;;5082437;28;20173;-68
2021/04/27 12:47:49;;;;;;;15.63;13.52;;;;;;;;;;5087035;28;20278;-69
2021/04/27 12:50:16;;;;;;;9.05;4.72;;;;;;;;;;5079004;28;20169;-70
2021/04/27 12:52:42;;;;;;;9.23;5.03;;;;;;;;;;5086143;28;20227;-70
2021/04/27 12:55:09;;;;;;;7.93;6.18;;;;;;;;;;5084964;28;20597;-68
2021/04/27 12:57:34;;;;;;;5.78;5.28;;;;;;;;;;5090030;28;20168;-69
2021/04/27 13:00:11;;;;;;;16.17;14.73;;;;;;;;;;5091630;28;20290;-68
2021/04/27 13:02:36;;;;;;;7.93;6.38;;;;;;;;;;5088938;28;20737;-69
2021/04/27 13:05:04;;;;;;;6.40;4.53;;;;;;;;;;5091851;28;20255;-69
2021/04/27 13:07:34;;;;;;;9.02;8.23;;;;;;;;;;5089461;28;20176;-69
2021/04/27 13:10:01;;;;;;;6.10;5.05;;;;;;;;;;5086832;28;20187;-69
2021/04/27 13:12:30;;;;;;;16.05;12.65;;;;;;;;;;5086347;28;20200;-68
2021/04/27 13:14:56;;;;;;;15.15;13.55;;;;;;;;;;5090395;28;20186;-68
2021/04/27 13:17:21;;;;;;;15.77;8.82;;;;;;;;;;5084274;28;20268;-70
2021/04/27 13:19:47;;;;;;;12.93;8.27;;;;;;;;;;5087158;28;20275;-68
2021/04/27 13:22:18;;;;;;;6.60;5.18;;;;;;;;;;5084032;28;20456;-68
2021/04/27 13:24:45;;;;;;;8.20;5.50;;;;;;;;;;5086801;28;20179;-69
2021/04/27 13:27:11;;;;;;;6.65;4.50;;;;;;;;;;5086961;28;20172;-69
2021/04/27 13:29:37;;;;;;;6.53;4.43;;;;;;;;;;5081389;28;20599;-69
2021/04/27 13:32:19;;;;;;;5.72;4.65;;;;;;;;;;5088750;28;20284;-69
2021/04/27 13:34:44;;;;;;;4.90;4.40;;;;;;;;;;5089768;28;20203;-69
2021/04/27 13:37:10;;;;;;;5.73;4.23;;;;;;;;;;5085132;28;20207;-69
2021/04/27 13:39:35;;;;;;;6.25;4.50;;;;;;;;;;5086145;28;20489;-69
2021/04/27 13:42:00;;;;;;;5.50;4.35;;;;;;;;;;5082595;28;20723;-70
2021/04/27 13:44:25;;;;;;;4.55;4.03;;;;;;;;;;5084543;28;20173;-69
2021/04/27 13:46:51;;;;;;;4.60;3.40;;;;;;;;;;5083624;28;20187;-68
2021/04/27 13:49:16;;;;;;;4.10;3.63;;;;;;;;;;5082140;28;20168;-68
2021/04/27 13:51:41;;;;;;;3.65;3.35;;;;;;;;;;5081538;28;20196;-69
2021/04/27 13:54:06;;;;;;;6.80;4.68;;;;;;;;;;5087166;28;20225;-69
2021/04/27 13:56:31;;;;;;;4.35;3.67;;;;;;;;;;5083913;28;20176;-68
2021/04/27 13:58:57;;;;;;;5.25;3.85;;;;;;;;;;5076291;28;20177;-68
2021/04/27 14:01:22;;;;;;;4.22;3.83;;;;;;;;;;5085719;28;20580;-70
2021/04/27 14:03:47;;;;;;;6.32;5.40;;;;;;;;;;5078489;28;20184;-68
2021/04/27 14:06:12;;;;;;;19.37;17.23;;;;;;;;;;5080330;28;20168;-69
2021/04/27 14:08:39;;;;;;;8.43;6.50;;;;;;;;;;5083459;28;20443;-69
2021/04/27 14:11:04;;;;;;;5.93;4.20;;;;;;;;;;5075792;28;20828;-69
2021/04/27 14:13:29;;;;;;;7.37;4.50;;;;;;;;;;5086155;28;20193;-69
2021/04/27 14:15:54;;;;;;;9.53;3.90;;;;;;;;;;5081491;28;20443;-68
2021/04/27 14:18:20;;;;;;;5.00;4.13;;;;;;;;;;5077051;28;20439;-68
2021/04/27 14:20:45;;;;;;;5.00;4.15;;;;;;;;;;5072748;28;20197;-70
2021/04/27 14:23:11;;;;;;;5.93;3.70;;;;;;;;;;5083306;28;20262;-68
2021/04/27 14:25:37;;;;;;;5.50;5.00;;;;;;;;;;5073848;28;20167;-69
2021/04/27 14:28:03;;;;;;;7.03;4.80;;;;;;;;;;5082523;28;20204;-69
2021/04/27 14:30:28;;;;;;;6.00;4.78;;;;;;;;;;5084682;28;20296;-69
2021/04/27 14:32:55;;;;;;;9.15;4.63;;;;;;;;;;5087876;28;20626;-69
2021/04/27 14:35:22;;;;;;;5.20;4.70;;;;;;;;;;5082399;28;20672;-70
2021/04/27 14:37:47;;;;;;;5.82;5.13;;;;;;;;;;5080738;28;20191;-69
2021/04/27 14:40:13;;;;;;;6.90;5.50;;;;;;;;;;5084315;28;20196;-70